sensor_id;sensor_type;location;lat;lon;timestamp;pressure;altitude;pressure_sealevel;temperature;humidity
38400;BME280;24180;42.676;23.320;2022-09-06T00:00:15;95385.34;;;15.13;100.00
38400;BME280;24180;42.676;23.320;2022-09-06T00:02:43;95396.81;;;15.20;100.00
38400;BME280;24180;42.676;23.320;2022-09-06T00:05:10;95399.03;;;15.07;100.00
38400;BME280;24180;42.676;23.320;2022-09-06T00:07:36;95393.81;;;15.07;100.00
38400;BME280;24180;42.676;23.320;2022-09-06T00:10:02;95399.16;;;15.06;100.00
38400;BME280;24180;42.676;23.320;2022-09-06T00:12:28;95387.25;;;15.03;100.00
38400;BME280;24180;42.676;23.320;2022-09-06T00:14:53;95387.88;;;14.97;100.00
38400;BME280;24180;42.676;23.320;2022-09-06T00:17:19;95385.91;;;14.91;100.00
38400;BME280;24180;42.676;23.320;2022-09-06T00:19:44;95390.28;;;14.90;100.00
38400;BME280;24180;42.676;23.320;2022-09-06T00:22:10;95395.59;;;14.81;100.00
38400;BME280;24180;42.676;23.320;2022-09-06T00:24:36;95394.81;;;14.80;100.00
38400;BME280;24180;42.676;23.320;2022-09-06T00:27:06;95395.09;;;14.77;100.00
38400;BME280;24180;42.676;23.320;2022-09-06T00:29:32;95398.97;;;14.73;100.00
38400;BME280;24180;42.676;23.320;2022-09-06T00:31:58;95391.41;;;14.62;100.00
38400;BME280;24180;42.676;23.320;2022-09-06T00:34:24;95386.19;;;14.62;100.00
38400;BME280;24180;42.676;23.320;2022-09-06T00:36:49;95386.19;;;14.62;100.00
38400;BME280;24180;42.676;23.320;2022-09-06T00:39:15;95388.09;;;14.52;100.00
38400;BME280;24180;42.676;23.320;2022-09-06T00:41:40;95394.97;;;14.61;100.00
38400;BME280;24180;42.676;23.320;2022-09-06T00:44:06;95390.13;;;14.66;100.00
38400;BME280;24180;42.676;23.320;2022-09-06T00:46:32;95387.00;;;14.63;100.00
38400;BME280;24180;42.676;23.320;2022-09-06T00:49:05;95374.13;;;14.61;100.00
38400;BME280;24180;42.676;23.320;2022-09-06T00:51:33;95381.25;;;14.51;100.00
38400;BME280;24180;42.676;23.320;2022-09-06T00:54:03;95382.72;;;14.53;100.00
38400;BME280;24180;42.676;23.320;2022-09-06T00:56:31;95379.72;;;14.48;100.00
38400;BME280;24180;42.676;23.320;2022-09-06T00:58:57;95386.81;;;14.56;100.00
38400;BME280;24180;42.676;23.320;2022-09-06T01:01:24;95382.94;;;14.60;100.00
38400;BME280;24180;42.676;23.320;2022-09-06T01:03:49;95382.50;;;14.47;100.00
38400;BME280;24180;42.676;23.320;2022-09-06T01:06:33;95391.38;;;14.36;100.00
38400;BME280;24180;42.676;23.320;2022-09-06T01:11:49;95391.09;;;14.39;100.00
38400;BME280;24180;42.676;23.320;2022-09-06T01:16:57;95387.34;;;14.42;100.00
38400;BME280;24180;42.676;23.320;2022-09-06T01:19:46;95393.28;;;14.34;100.00
38400;BME280;24180;42.676;23.320;2022-09-06T01:22:40;95379.56;;;14.32;100.00
38400;BME280;24180;42.676;23.320;2022-09-06T01:28:05;95381.50;;;14.40;100.00
38400;BME280;24180;42.676;23.320;2022-09-06T01:30:36;95381.13;;;14.35;100.00
38400;BME280;24180;42.676;23.320;2022-09-06T01:33:15;95379.16;;;14.19;100.00
38400;BME280;24180;42.676;23.320;2022-09-06T01:35:54;95381.91;;;14.18;100.00
38400;BME280;24180;42.676;23.320;2022-09-06T01:38:23;95379.75;;;14.13;100.00
38400;BME280;24180;42.676;23.320;2022-09-06T01:40:49;95382.16;;;14.06;100.00
38400;BME280;24180;42.676;23.320;2022-09-06T01:43:25;95362.19;;;13.97;100.00
38400;BME280;24180;42.676;23.320;2022-09-06T02:00:13;95354.69;;;13.94;100.00
38400;BME280;24180;42.676;23.320;2022-09-06T02:05:31;95360.41;;;13.98;100.00
38400;BME280;24180;42.676;23.320;2022-09-06T02:08:33;95355.88;;;13.82;100.00
38400;BME280;24180;42.676;23.320;2022-09-06T02:11:03;95346.06;;;13.76;100.00
38400;BME280;24180;42.676;23.320;2022-09-06T02:13:35;95350.81;;;13.81;100.00
38400;BME280;24180;42.676;23.320;2022-09-06T02:16:05;95347.84;;;13.93;100.00
38400;BME280;24180;42.676;23.320;2022-09-06T02:21:27;95345.41;;;13.92;100.00
38400;BME280;24180;42.676;23.320;2022-09-06T02:23:56;95355.50;;;13.95;100.00
38400;BME280;24180;42.676;23.320;2022-09-06T02:26:27;95351.19;;;13.86;100.00
38400;BME280;24180;42.676;23.320;2022-09-06T02:28:54;95351.19;;;13.86;100.00
38400;BME280;24180;42.676;23.320;2022-09-06T02:34:13;95350.81;;;13.81;100.00
38400;BME280;24180;42.676;23.320;2022-09-06T02:36:59;95347.19;;;13.74;100.00
38400;BME280;24180;42.676;23.320;2022-09-06T02:39:25;95353.59;;;13.79;100.00
38400;BME280;24180;42.676;23.320;2022-09-06T02:41:51;95359.63;;;13.80;100.00
38400;BME280;24180;42.676;23.320;2022-09-06T02:44:16;95342.50;;;13.59;100.00
38400;BME280;24180;42.676;23.320;2022-09-06T02:46:42;95359.63;;;13.52;100.00
38400;BME280;24180;42.676;23.320;2022-09-06T02:49:07;95371.63;;;13.63;100.00
38400;BME280;24180;42.676;23.320;2022-09-06T02:51:37;95367.41;;;13.62;100.00
38400;BME280;24180;42.676;23.320;2022-09-06T02:54:03;95373.56;;;13.61;100.00
38400;BME280;24180;42.676;23.320;2022-09-06T02:56:29;95364.78;;;13.62;100.00
38400;BME280;24180;42.676;23.320;2022-09-06T02:58:55;95352.00;;;13.51;100.00
38400;BME280;24180;42.676;23.320;2022-09-06T03:01:20;95359.13;;;13.49;100.00
38400;BME280;24180;42.676;23.320;2022-09-06T03:03:46;95359.50;;;13.54;100.00
38400;BME280;24180;42.676;23.320;2022-09-06T03:06:14;95362.09;;;13.54;100.00
38400;BME280;24180;42.676;23.320;2022-09-06T03:08:39;95344.66;;;13.37;100.00
38400;BME280;24180;42.676;23.320;2022-09-06T03:11:05;95342.38;;;13.34;100.00
38400;BME280;24180;42.676;23.320;2022-09-06T03:13:30;95348.81;;;13.30;100.00
38400;BME280;24180;42.676;23.320;2022-09-06T03:15:57;95362.22;;;13.35;100.00
38400;BME280;24180;42.676;23.320;2022-09-06T03:18:24;95357.97;;;13.34;100.00
38400;BME280;24180;42.676;23.320;2022-09-06T03:20:51;95362.25;;;13.25;100.00
38400;BME280;24180;42.676;23.320;2022-09-06T03:23:20;95352.28;;;13.21;100.00
38400;BME280;24180;42.676;23.320;2022-09-06T03:25:46;95352.47;;;13.19;100.00
38400;BME280;24180;42.676;23.320;2022-09-06T03:28:11;95351.03;;;13.25;100.00
38400;BME280;24180;42.676;23.320;2022-09-06T03:30:37;95356.09;;;13.26;100.00
38400;BME280;24180;42.676;23.320;2022-09-06T03:33:03;95368.88;;;13.20;100.00
38400;BME280;24180;42.676;23.320;2022-09-06T03:35:29;95364.75;;;13.17;100.00
38400;BME280;24180;42.676;23.320;2022-09-06T03:37:55;95352.19;;;13.12;100.00
38400;BME280;24180;42.676;23.320;2022-09-06T03:40:20;95369.00;;;13.18;100.00
38400;BME280;24180;42.676;23.320;2022-09-06T03:42:46;95363.97;;;13.07;100.00
38400;BME280;24180;42.676;23.320;2022-09-06T03:45:11;95370.78;;;13.08;100.00
38400;BME280;24180;42.676;23.320;2022-09-06T03:47:37;95361.13;;;13.00;100.00
38400;BME280;24180;42.676;23.320;2022-09-06T03:50:04;95357.69;;;13.00;100.00
38400;BME280;24180;42.676;23.320;2022-09-06T03:52:29;95374.13;;;13.10;100.00
38400;BME280;24180;42.676;23.320;2022-09-06T03:54:55;95368.97;;;13.28;100.00
38400;BME280;24180;42.676;23.320;2022-09-06T03:57:20;95375.22;;;13.35;100.00
38400;BME280;24180;42.676;23.320;2022-09-06T03:59:46;95371.28;;;13.31;100.00
38400;BME280;24180;42.676;23.320;2022-09-06T04:02:13;95382.53;;;13.22;100.00
38400;BME280;24180;42.676;23.320;2022-09-06T04:04:38;95370.78;;;13.18;100.00
38400;BME280;24180;42.676;23.320;2022-09-06T04:07:04;95384.63;;;13.08;100.00
38400;BME280;24180;42.676;23.320;2022-09-06T04:09:29;95384.63;;;13.08;100.00
38400;BME280;24180;42.676;23.320;2022-09-06T04:11:55;95374.94;;;13.01;100.00
38400;BME280;24180;42.676;23.320;2022-09-06T04:14:20;95377.94;;;13.16;100.00
38400;BME280;24180;42.676;23.320;2022-09-06T04:16:46;95381.91;;;13.10;100.00
38400;BME280;24180;42.676;23.320;2022-09-06T04:19:12;95380.00;;;13.02;100.00
38400;BME280;24180;42.676;23.320;2022-09-06T04:21:37;95378.72;;;13.16;100.00
38400;BME280;24180;42.676;23.320;2022-09-06T04:24:03;95367.66;;;13.14;100.00
38400;BME280;24180;42.676;23.320;2022-09-06T04:26:29;95369.53;;;13.22;100.00
38400;BME280;24180;42.676;23.320;2022-09-06T04:28:55;95381.06;;;13.19;100.00
38400;BME280;24180;42.676;23.320;2022-09-06T04:31:21;95386.78;;;13.23;100.00
38400;BME280;24180;42.676;23.320;2022-09-06T04:33:46;95397.22;;;13.13;100.00
38400;BME280;24180;42.676;23.320;2022-09-06T04:36:12;95384.75;;;13.17;100.00
38400;BME280;24180;42.676;23.320;2022-09-06T04:38:42;95386.38;;;13.27;100.00
38400;BME280;24180;42.676;23.320;2022-09-06T04:41:11;95383.75;;;13.27;100.00
38400;BME280;24180;42.676;23.320;2022-09-06T04:43:37;95390.16;;;13.33;100.00
38400;BME280;24180;42.676;23.320;2022-09-06T04:46:23;95394.28;;;13.26;100.00
38400;BME280;24180;42.676;23.320;2022-09-06T04:48:52;95382.88;;;13.36;100.00
38400;BME280;24180;42.676;23.320;2022-09-06T04:51:18;95385.19;;;13.39;100.00
38400;BME280;24180;42.676;23.320;2022-09-06T04:53:44;95382.25;;;13.52;100.00
38400;BME280;24180;42.676;23.320;2022-09-06T04:56:18;95384.78;;;13.62;100.00
38400;BME280;24180;42.676;23.320;2022-09-06T04:58:45;95381.16;;;13.72;100.00
38400;BME280;24180;42.676;23.320;2022-09-06T05:01:11;95383.19;;;13.78;100.00
38400;BME280;24180;42.676;23.320;2022-09-06T05:03:37;95376.94;;;13.71;100.00
38400;BME280;24180;42.676;23.320;2022-09-06T05:06:07;95388.47;;;13.86;100.00
38400;BME280;24180;42.676;23.320;2022-09-06T05:08:36;95389.03;;;13.80;100.00
38400;BME280;24180;42.676;23.320;2022-09-06T05:11:02;95389.03;;;13.80;100.00
38400;BME280;24180;42.676;23.320;2022-09-06T05:13:27;95378.72;;;13.88;100.00
38400;BME280;24180;42.676;23.320;2022-09-06T05:15:53;95380.72;;;13.94;100.00
38400;BME280;24180;42.676;23.320;2022-09-06T05:18:19;95388.63;;;14.02;100.00
38400;BME280;24180;42.676;23.320;2022-09-06T05:20:53;95386.97;;;14.19;100.00
38400;BME280;24180;42.676;23.320;2022-09-06T05:23:20;95380.94;;;14.19;100.00
38400;BME280;24180;42.676;23.320;2022-09-06T05:25:46;95388.97;;;14.25;100.00
38400;BME280;24180;42.676;23.320;2022-09-06T05:28:12;95387.22;;;14.43;100.00
38400;BME280;24180;42.676;23.320;2022-09-06T05:30:38;95379.66;;;14.40;100.00
38400;BME280;24180;42.676;23.320;2022-09-06T05:33:03;95390.97;;;14.49;100.00
38400;BME280;24180;42.676;23.320;2022-09-06T05:35:29;95386.19;;;14.62;100.00
38400;BME280;24180;42.676;23.320;2022-09-06T05:37:55;95398.47;;;14.70;100.00
38400;BME280;24180;42.676;23.320;2022-09-06T05:40:20;95401.56;;;14.73;100.00
38400;BME280;24180;42.676;23.320;2022-09-06T05:42:46;95409.31;;;14.83;100.00
38400;BME280;24180;42.676;23.320;2022-09-06T05:45:11;95401.72;;;14.97;100.00
38400;BME280;24180;42.676;23.320;2022-09-06T05:47:36;95408.53;;;14.90;100.00
38400;BME280;24180;42.676;23.320;2022-09-06T05:50:03;95407.56;;;14.91;100.00
38400;BME280;24180;42.676;23.320;2022-09-06T05:52:28;95401.72;;;14.97;100.00
38400;BME280;24180;42.676;23.320;2022-09-06T05:54:54;95406.94;;;14.97;100.00
38400;BME280;24180;42.676;23.320;2022-09-06T05:57:20;95399.81;;;14.99;100.00
38400;BME280;24180;42.676;23.320;2022-09-06T05:59:45;95394.78;;;15.06;100.00
38400;BME280;24180;42.676;23.320;2022-09-06T06:02:10;95395.69;;;15.23;100.00
38400;BME280;24180;42.676;23.320;2022-09-06T06:04:36;95396.69;;;15.30;100.00
38400;BME280;24180;42.676;23.320;2022-09-06T06:07:01;95393.25;;;15.29;100.00
38400;BME280;24180;42.676;23.320;2022-09-06T06:09:27;95401.28;;;15.36;100.00
38400;BME280;24180;42.676;23.320;2022-09-06T06:11:52;95381.72;;;15.40;100.00
38400;BME280;24180;42.676;23.320;2022-09-06T06:14:18;95382.81;;;15.63;100.00
38400;BME280;24180;42.676;23.320;2022-09-06T06:16:43;95378.91;;;15.67;100.00
38400;BME280;24180;42.676;23.320;2022-09-06T06:19:09;95390.00;;;15.77;100.00
38400;BME280;24180;42.676;23.320;2022-09-06T06:21:34;95381.53;;;15.75;100.00
38400;BME280;24180;42.676;23.320;2022-09-06T06:24:03;95383.84;;;15.86;100.00
38400;BME280;24180;42.676;23.320;2022-09-06T06:26:34;95391.38;;;15.98;100.00
38400;BME280;24180;42.676;23.320;2022-09-06T06:29:00;95393.00;;;15.99;100.00
38400;BME280;24180;42.676;23.320;2022-09-06T06:31:32;95391.06;;;16.01;100.00
38400;BME280;24180;42.676;23.320;2022-09-06T06:33:58;95394.47;;;16.09;100.00
38400;BME280;24180;42.676;23.320;2022-09-06T06:36:25;95378.66;;;16.11;100.00
38400;BME280;24180;42.676;23.320;2022-09-06T06:38:54;95385.53;;;16.20;100.00
38400;BME280;24180;42.676;23.320;2022-09-06T06:41:22;95379.50;;;16.35;100.00
38400;BME280;24180;42.676;23.320;2022-09-06T06:43:55;95388.16;;;16.44;100.00
38400;BME280;24180;42.676;23.320;2022-09-06T06:46:23;95393.41;;;16.60;100.00
38400;BME280;24180;42.676;23.320;2022-09-06T06:48:49;95389.47;;;16.80;100.00
38400;BME280;24180;42.676;23.320;2022-09-06T06:51:16;95386.66;;;16.82;100.00
38400;BME280;24180;42.676;23.320;2022-09-06T06:53:43;95391.06;;;16.81;100.00
38400;BME280;24180;42.676;23.320;2022-09-06T06:58:46;95394.31;;;17.00;100.00
38400;BME280;24180;42.676;23.320;2022-09-06T07:01:14;95394.94;;;17.10;100.00
38400;BME280;24180;42.676;23.320;2022-09-06T07:03:40;95395.94;;;17.17;100.00
38400;BME280;24180;42.676;23.320;2022-09-06T07:06:06;95395.91;;;17.25;100.00
38400;BME280;24180;42.676;23.320;2022-09-06T07:08:32;95398.31;;;17.35;100.00
38400;BME280;24180;42.676;23.320;2022-09-06T07:10:58;95400.56;;;17.46;100.00
38400;BME280;24180;42.676;23.320;2022-09-06T07:13:24;95395.78;;;17.57;100.00
38400;BME280;24180;42.676;23.320;2022-09-06T07:15:49;95401.81;;;17.66;100.00
38400;BME280;24180;42.676;23.320;2022-09-06T07:18:16;95396.72;;;17.72;100.00
38400;BME280;24180;42.676;23.320;2022-09-06T07:20:41;95402.84;;;17.88;100.00
38400;BME280;24180;42.676;23.320;2022-09-06T07:23:07;95397.56;;;17.96;100.00
38400;BME280;24180;42.676;23.320;2022-09-06T07:25:33;95399.22;;;17.97;100.00
38400;BME280;24180;42.676;23.320;2022-09-06T07:28:01;95408.94;;;18.11;100.00
38400;BME280;24180;42.676;23.320;2022-09-06T07:30:29;95407.94;;;18.12;100.00
38400;BME280;24180;42.676;23.320;2022-09-06T07:32:58;95414.59;;;18.22;100.00
38400;BME280;24180;42.676;23.320;2022-09-06T07:35:23;95409.13;;;18.32;100.00
38400;BME280;24180;42.676;23.320;2022-09-06T07:37:54;95412.63;;;18.47;100.00
38400;BME280;24180;42.676;23.320;2022-09-06T07:40:20;95408.09;;;18.64;100.00
38400;BME280;24180;42.676;23.320;2022-09-06T07:42:46;95402.59;;;18.74;100.00
38400;BME280;24180;42.676;23.320;2022-09-06T07:45:11;95394.63;;;18.82;100.00
38400;BME280;24180;42.676;23.320;2022-09-06T07:47:37;95411.50;;;19.02;100.00
38400;BME280;24180;42.676;23.320;2022-09-06T07:50:03;95396.56;;;19.02;100.00
38400;BME280;24180;42.676;23.320;2022-09-06T07:52:29;95401.47;;;19.20;100.00
38400;BME280;24180;42.676;23.320;2022-09-06T07:54:54;95398.13;;;19.26;100.00
38400;BME280;24180;42.676;23.320;2022-09-06T07:57:21;95403.56;;;19.39;100.00
38400;BME280;24180;42.676;23.320;2022-09-06T07:59:48;95397.69;;;19.52;100.00
38400;BME280;24180;42.676;23.320;2022-09-06T08:02:13;95393.06;;;19.69;100.00
38400;BME280;24180;42.676;23.320;2022-09-06T08:04:39;95395.28;;;19.86;100.00
38400;BME280;24180;42.676;23.320;2022-09-06T08:07:07;95397.34;;;20.05;100.00
38400;BME280;24180;42.676;23.320;2022-09-06T08:09:32;95402.97;;;20.24;100.00
38400;BME280;24180;42.676;23.320;2022-09-06T08:11:58;95399.06;;;20.34;100.00
38400;BME280;24180;42.676;23.320;2022-09-06T08:14:23;95393.81;;;20.34;100.00
38400;BME280;24180;42.676;23.320;2022-09-06T08:16:49;95400.19;;;20.46;100.00
38400;BME280;24180;42.676;23.320;2022-09-06T08:19:15;95395.53;;;20.42;100.00
38400;BME280;24180;42.676;23.320;2022-09-06T08:21:42;95404.06;;;20.50;100.00
38400;BME280;24180;42.676;23.320;2022-09-06T08:24:08;95394.56;;;20.49;100.00
38400;BME280;24180;42.676;23.320;2022-09-06T08:26:36;95391.28;;;20.69;100.00
38400;BME280;24180;42.676;23.320;2022-09-06T08:29:05;95393.69;;;20.91;100.00
38400;BME280;24180;42.676;23.320;2022-09-06T08:31:34;95388.09;;;20.73;100.00
38400;BME280;24180;42.676;23.320;2022-09-06T08:34:00;95388.47;;;20.70;100.00
38400;BME280;24180;42.676;23.320;2022-09-06T08:36:27;95382.44;;;21.04;100.00
38400;BME280;24180;42.676;23.320;2022-09-06T08:38:59;95381.84;;;21.30;100.00
38400;BME280;24180;42.676;23.320;2022-09-06T08:44:15;95370.34;;;21.44;100.00
38400;BME280;24180;42.676;23.320;2022-09-06T08:47:06;95371.63;;;21.20;100.00
38400;BME280;24180;42.676;23.320;2022-09-06T08:49:56;95365.44;;;21.34;100.00
38400;BME280;24180;42.676;23.320;2022-09-06T08:52:55;95364.72;;;21.54;100.00
38400;BME280;24180;42.676;23.320;2022-09-06T09:01:16;95343.84;;;22.13;100.00
38400;BME280;24180;42.676;23.320;2022-09-06T09:03:43;95350.75;;;22.27;100.00
38400;BME280;24180;42.676;23.320;2022-09-06T09:06:11;95348.75;;;22.29;100.00
38400;BME280;24180;42.676;23.320;2022-09-06T09:11:24;95329.66;;;22.27;100.00
38400;BME280;24180;42.676;23.320;2022-09-06T09:13:53;95331.50;;;22.33;100.00
38400;BME280;24180;42.676;23.320;2022-09-06T09:16:20;95326.44;;;22.51;100.00
38400;BME280;24180;42.676;23.320;2022-09-06T09:18:49;95320.34;;;22.64;100.00
38400;BME280;24180;42.676;23.320;2022-09-06T09:21:19;95314.28;;;22.50;100.00
38400;BME280;24180;42.676;23.320;2022-09-06T09:23:51;95327.84;;;22.67;100.00
38400;BME280;24180;42.676;23.320;2022-09-06T09:26:17;95309.19;;;22.75;100.00
38400;BME280;24180;42.676;23.320;2022-09-06T09:31:48;95321.34;;;23.02;100.00
38400;BME280;24180;42.676;23.320;2022-09-06T09:34:36;95321.13;;;23.10;99.58
38400;BME280;24180;42.676;23.320;2022-09-06T09:37:24;95311.41;;;22.98;100.00
38400;BME280;24180;42.676;23.320;2022-09-06T09:39:55;95304.47;;;23.03;97.25
38400;BME280;24180;42.676;23.320;2022-09-06T09:42:28;95304.00;;;23.32;99.43
38400;BME280;24180;42.676;23.320;2022-09-06T09:44:56;95302.50;;;23.63;98.65
38400;BME280;24180;42.676;23.320;2022-09-06T09:47:32;95298.44;;;23.92;92.71
38400;BME280;24180;42.676;23.320;2022-09-06T09:49:58;95296.44;;;24.25;92.99
38400;BME280;24180;42.676;23.320;2022-09-06T09:52:29;95305.22;;;24.75;87.49
38400;BME280;24180;42.676;23.320;2022-09-06T09:55:04;95293.28;;;25.82;79.64
38400;BME280;24180;42.676;23.320;2022-09-06T09:57:42;95296.38;;;27.95;63.75
38400;BME280;24180;42.676;23.320;2022-09-06T10:00:09;95288.53;;;29.33;53.36
38400;BME280;24180;42.676;23.320;2022-09-06T10:02:39;95284.69;;;31.01;45.46
38400;BME280;24180;42.676;23.320;2022-09-06T10:07:52;95276.63;;;34.84;35.77
38400;BME280;24180;42.676;23.320;2022-09-06T10:10:45;95271.94;;;35.52;34.49
38400;BME280;24180;42.676;23.320;2022-09-06T10:13:19;95280.22;;;36.59;32.00
38400;BME280;24180;42.676;23.320;2022-09-06T10:15:46;95275.00;;;35.88;31.29
38400;BME280;24180;42.676;23.320;2022-09-06T10:28:59;95265.22;;;41.62;24.55
38400;BME280;24180;42.676;23.320;2022-09-06T10:34:02;95264.19;;;42.75;23.07
38400;BME280;24180;42.676;23.320;2022-09-06T10:36:36;95251.06;;;43.34;21.36
38400;BME280;24180;42.676;23.320;2022-09-06T10:39:18;95257.97;;;44.01;20.74
38400;BME280;24180;42.676;23.320;2022-09-06T10:42:06;95254.34;;;39.78;22.44
38400;BME280;24180;42.676;23.320;2022-09-06T10:47:36;95243.13;;;42.84;20.82
38400;BME280;24180;42.676;23.320;2022-09-06T10:50:08;95254.50;;;42.99;20.65
38400;BME280;24180;42.676;23.320;2022-09-06T10:52:39;95256.81;;;42.76;21.02
38400;BME280;24180;42.676;23.320;2022-09-06T10:55:10;95236.72;;;42.27;20.18
38400;BME280;24180;42.676;23.320;2022-09-06T11:00:06;95241.00;;;40.07;22.40
38400;BME280;24180;42.676;23.320;2022-09-06T11:05:35;95236.06;;;40.52;21.83
38400;BME280;24180;42.676;23.320;2022-09-06T11:08:22;95233.44;;;41.54;20.31
38400;BME280;24180;42.676;23.320;2022-09-06T11:10:51;95231.28;;;38.66;22.21
38400;BME280;24180;42.676;23.320;2022-09-06T11:13:22;95228.19;;;37.05;23.55
38400;BME280;24180;42.676;23.320;2022-09-06T11:16:04;95230.59;;;38.60;22.63
38400;BME280;24180;42.676;23.320;2022-09-06T11:21:49;95226.13;;;39.88;21.32
38400;BME280;24180;42.676;23.320;2022-09-06T11:24:12;95233.19;;;40.49;20.98
38400;BME280;24180;42.676;23.320;2022-09-06T11:29:28;95220.34;;;42.06;19.81
38400;BME280;24180;42.676;23.320;2022-09-06T11:34:35;95221.41;;;45.29;18.16
38400;BME280;24180;42.676;23.320;2022-09-06T11:37:06;95220.22;;;47.05;16.37
38400;BME280;24180;42.676;23.320;2022-09-06T11:39:33;95215.53;;;47.51;15.56
38400;BME280;24180;42.676;23.320;2022-09-06T11:42:00;95216.63;;;46.81;15.81
38400;BME280;24180;42.676;23.320;2022-09-06T11:47:42;95201.63;;;45.67;16.03
38400;BME280;24180;42.676;23.320;2022-09-06T11:58:27;95199.19;;;47.12;15.22
38400;BME280;24180;42.676;23.320;2022-09-06T12:08:58;95188.59;;;35.18;24.20
38400;BME280;24180;42.676;23.320;2022-09-06T12:11:45;95186.16;;;36.85;22.96
38400;BME280;24180;42.676;23.320;2022-09-06T12:14:30;95188.03;;;42.25;18.78
38400;BME280;24180;42.676;23.320;2022-09-06T12:19:47;95178.66;;;43.01;18.08
38400;BME280;24180;42.676;23.320;2022-09-06T12:27:36;95170.59;;;48.74;15.55
38400;BME280;24180;42.676;23.320;2022-09-06T12:30:08;95173.88;;;49.79;15.33
38400;BME280;24180;42.676;23.320;2022-09-06T12:32:40;95169.06;;;48.81;15.93
38400;BME280;24180;42.676;23.320;2022-09-06T12:35:28;95183.63;;;45.03;18.02
38400;BME280;24180;42.676;23.320;2022-09-06T12:38:01;95179.84;;;42.67;20.12
38400;BME280;24180;42.676;23.320;2022-09-06T12:40:36;95174.75;;;40.51;21.40
38400;BME280;24180;42.676;23.320;2022-09-06T12:43:08;95157.41;;;38.21;23.52
38400;BME280;24180;42.676;23.320;2022-09-06T12:45:34;95173.53;;;36.35;25.48
38400;BME280;24180;42.676;23.320;2022-09-06T12:48:09;95162.22;;;35.15;26.61
38400;BME280;24180;42.676;23.320;2022-09-06T12:50:35;95162.47;;;34.33;28.66
38400;BME280;24180;42.676;23.320;2022-09-06T12:53:03;95156.47;;;37.40;25.71
38400;BME280;24180;42.676;23.320;2022-09-06T12:55:40;95145.97;;;39.47;22.91
38400;BME280;24180;42.676;23.320;2022-09-06T12:58:08;95142.75;;;35.66;25.85
38400;BME280;24180;42.676;23.320;2022-09-06T13:00:48;95146.81;;;33.62;29.32
38400;BME280;24180;42.676;23.320;2022-09-06T13:03:31;95151.72;;;32.75;30.76
38400;BME280;24180;42.676;23.320;2022-09-06T13:06:02;95151.94;;;34.02;28.84
38400;BME280;24180;42.676;23.320;2022-09-06T13:08:44;95148.66;;;33.17;30.96
38400;BME280;24180;42.676;23.320;2022-09-06T13:11:13;95151.97;;;31.83;33.06
38400;BME280;24180;42.676;23.320;2022-09-06T13:13:50;95143.44;;;32.41;32.69
38400;BME280;24180;42.676;23.320;2022-09-06T13:16:21;95157.13;;;36.64;27.09
38400;BME280;24180;42.676;23.320;2022-09-06T13:18:48;95139.19;;;40.18;23.85
38400;BME280;24180;42.676;23.320;2022-09-06T13:21:24;95151.00;;;42.33;21.38
38400;BME280;24180;42.676;23.320;2022-09-06T13:23:50;95153.19;;;44.46;19.43
38400;BME280;24180;42.676;23.320;2022-09-06T13:26:38;95155.28;;;41.72;21.57
38400;BME280;24180;42.676;23.320;2022-09-06T13:31:45;95153.66;;;35.32;27.55
38400;BME280;24180;42.676;23.320;2022-09-06T13:36:50;95151.09;;;33.68;29.99
38400;BME280;24180;42.676;23.320;2022-09-06T13:42:07;95162.78;;;40.44;23.30
38400;BME280;24180;42.676;23.320;2022-09-06T13:44:35;95156.44;;;42.66;21.13
38400;BME280;24180;42.676;23.320;2022-09-06T13:47:02;95150.38;;;42.93;20.12
38400;BME280;24180;42.676;23.320;2022-09-06T13:49:31;95155.31;;;41.04;21.79
38400;BME280;24180;42.676;23.320;2022-09-06T13:52:00;95161.34;;;38.15;24.25
38400;BME280;24180;42.676;23.320;2022-09-06T13:54:27;95151.19;;;37.84;24.78
38400;BME280;24180;42.676;23.320;2022-09-06T13:56:53;95152.72;;;41.17;22.06
38400;BME280;24180;42.676;23.320;2022-09-06T13:59:19;95141.44;;;43.77;20.09
38400;BME280;24180;42.676;23.320;2022-09-06T14:01:47;95154.94;;;45.60;18.95
38400;BME280;24180;42.676;23.320;2022-09-06T14:04:17;95137.22;;;42.62;19.97
38400;BME280;24180;42.676;23.320;2022-09-06T14:06:46;95142.47;;;40.67;21.95
38400;BME280;24180;42.676;23.320;2022-09-06T14:09:12;95126.13;;;43.12;20.20
38400;BME280;24180;42.676;23.320;2022-09-06T14:11:38;95139.47;;;45.01;18.84
38400;BME280;24180;42.676;23.320;2022-09-06T14:14:04;95134.22;;;46.32;18.12
38400;BME280;24180;42.676;23.320;2022-09-06T14:16:30;95134.19;;;46.90;17.35
38400;BME280;24180;42.676;23.320;2022-09-06T14:18:56;95136.78;;;47.28;17.19
38400;BME280;24180;42.676;23.320;2022-09-06T14:21:21;95143.66;;;46.73;17.04
38400;BME280;24180;42.676;23.320;2022-09-06T14:23:48;95146.97;;;42.96;19.88
38400;BME280;24180;42.676;23.320;2022-09-06T14:26:15;95149.84;;;40.06;22.35
38400;BME280;24180;42.676;23.320;2022-09-06T14:28:41;95141.66;;;38.01;24.36
38400;BME280;24180;42.676;23.320;2022-09-06T14:31:26;95134.25;;;35.91;26.94
38400;BME280;24180;42.676;23.320;2022-09-06T14:33:55;95144.69;;;34.94;28.63
38400;BME280;24180;42.676;23.320;2022-09-06T14:36:24;95139.84;;;33.61;29.84
38400;BME280;24180;42.676;23.320;2022-09-06T14:38:52;95131.59;;;32.78;31.49
38400;BME280;24180;42.676;23.320;2022-09-06T14:41:18;95138.06;;;31.76;33.21
38400;BME280;24180;42.676;23.320;2022-09-06T14:43:48;95140.00;;;31.08;34.69
38400;BME280;24180;42.676;23.320;2022-09-06T14:46:15;95127.50;;;30.35;36.28
38400;BME280;24180;42.676;23.320;2022-09-06T14:48:42;95126.47;;;29.72;38.28